createdAt,value
2022-10-21T00:03:33.943Z,4.63
2022-10-21T00:05:37.531Z,5.07
2022-10-21T00:07:40.922Z,4.90
2022-10-21T00:09:44.308Z,5.27
2022-10-21T00:11:47.729Z,5.60
2022-10-21T00:13:51.119Z,4.63
2022-10-21T00:16:01.607Z,5.20
2022-10-21T00:18:05.225Z,4.97
2022-10-21T00:20:12.328Z,4.37
2022-10-21T00:22:15.780Z,5.83
2022-10-21T00:24:19.154Z,5.10
2022-10-21T00:26:22.567Z,5.07
2022-10-21T00:28:26.309Z,6.13
2022-10-21T00:30:29.764Z,5.43
2022-10-21T00:34:51.458Z,6.70
2022-10-21T00:36:54.840Z,5.23
2022-10-21T00:38:58.268Z,5.27
2022-10-21T00:41:01.955Z,4.90
2022-10-21T00:43:05.404Z,5.00
2022-10-21T00:45:18.315Z,5.97
2022-10-21T00:49:42.012Z,5.17
2022-10-21T00:51:47.982Z,5.40
2022-10-21T00:53:52.458Z,5.30
2022-10-21T00:55:59.092Z,5.40
2022-10-21T00:58:03.754Z,5.87
2022-10-21T01:00:08.544Z,5.50
2022-10-21T01:02:12.143Z,5.50
2022-10-21T01:04:15.523Z,6.63
2022-10-21T01:06:22.016Z,5.53
2022-10-21T01:08:25.805Z,5.70
2022-10-21T01:10:29.778Z,5.40
2022-10-21T01:14:56.429Z,6.47
2022-10-21T01:17:11.580Z,5.17
2022-10-21T01:19:18.927Z,7.33
2022-10-21T01:21:30.716Z,7.37
2022-10-21T01:24:10.341Z,5.50
2022-10-21T01:31:00.572Z,5.43
2022-10-21T01:33:27.352Z,6.43
2022-10-21T01:35:34.805Z,4.80
2022-10-21T01:37:42.618Z,6.33
2022-10-21T01:44:18.594Z,5.20
2022-10-21T01:46:26.130Z,5.47
2022-10-21T01:48:33.215Z,5.40
2022-10-21T01:50:39.808Z,5.73
2022-10-21T01:55:01.254Z,4.90
2022-10-21T01:57:06.640Z,4.73
2022-10-21T01:59:12.836Z,7.00
2022-10-21T02:01:18.874Z,5.37
2022-10-21T02:03:25.610Z,6.57
2022-10-21T02:05:31.778Z,5.10
2022-10-21T02:07:35.283Z,5.00
2022-10-21T02:09:38.694Z,5.50
2022-10-21T02:11:44.963Z,5.00
2022-10-21T02:13:53.008Z,5.90
2022-10-21T02:15:59.931Z,5.70
2022-10-21T02:18:07.247Z,5.43
2022-10-21T02:20:13.415Z,5.30
2022-10-21T02:22:20.408Z,6.17
2022-10-21T02:24:27.615Z,5.47
2022-10-21T02:26:31.190Z,6.23
2022-10-21T02:28:35.143Z,5.27
2022-10-21T02:33:04.897Z,5.13
2022-10-21T02:37:36.681Z,6.30
2022-10-21T02:39:43.777Z,5.70
2022-10-21T02:44:07.248Z,6.07
2022-10-21T02:46:13.225Z,5.23
2022-10-21T02:48:16.746Z,5.70
2022-10-21T02:50:20.536Z,5.50
2022-10-21T02:52:24.011Z,6.10
2022-10-21T02:54:27.521Z,6.30
2022-10-21T02:56:31.028Z,8.90
2022-10-21T02:58:34.900Z,9.57
2022-10-21T03:00:38.383Z,10.97
2022-10-21T03:04:57.779Z,7.17
2022-10-21T03:07:01.276Z,7.13
2022-10-21T03:09:05.275Z,6.50
2022-10-21T03:11:08.716Z,6.80
2022-10-21T03:13:12.139Z,7.73
2022-10-21T03:15:15.851Z,6.70
2022-10-21T03:17:21.633Z,6.47
2022-10-21T03:19:24.565Z,7.17
2022-10-21T03:21:28.083Z,6.70
2022-10-21T03:23:31.445Z,6.83
2022-10-21T03:25:35.842Z,6.73
2022-10-21T03:27:39.677Z,9.60
2022-10-21T03:32:02.887Z,8.10
2022-10-21T03:34:06.392Z,7.67
2022-10-21T03:36:09.756Z,8.10
2022-10-21T03:38:13.183Z,9.40
2022-10-21T03:40:16.872Z,7.97
2022-10-21T03:42:20.240Z,9.07
2022-10-21T03:44:23.645Z,7.47
2022-10-21T03:46:27.305Z,6.60
2022-10-21T03:48:30.843Z,7.83
2022-10-21T03:50:34.240Z,6.37
2022-10-21T03:52:37.859Z,7.33
2022-10-21T03:54:41.311Z,5.87
2022-10-21T03:59:03.460Z,6.23
2022-10-21T04:01:07.065Z,6.40
2022-10-21T04:03:10.484Z,7.20
2022-10-21T04:05:13.835Z,6.83
2022-10-21T04:07:17.251Z,7.73
2022-10-21T04:09:20.841Z,6.03
2022-10-21T04:11:24.225Z,6.80
2022-10-21T04:13:27.612Z,6.13
2022-10-21T04:15:31.025Z,7.13
2022-10-21T04:17:34.466Z,6.93
2022-10-21T04:19:37.835Z,5.90
2022-10-21T04:21:41.261Z,5.80
2022-10-21T04:23:44.629Z,5.13
2022-10-21T04:28:06.339Z,6.23
2022-10-21T04:30:11.355Z,6.00
2022-10-21T04:32:14.899Z,6.37
2022-10-21T04:34:18.539Z,6.40
2022-10-21T04:36:21.994Z,6.40
2022-10-21T04:38:25.432Z,6.00
2022-10-21T04:40:28.948Z,6.30
2022-10-21T04:42:32.313Z,6.93
2022-10-21T04:44:38.687Z,5.60
2022-10-21T04:46:42.120Z,7.83
2022-10-21T04:48:45.546Z,6.67
2022-10-21T04:53:06.072Z,6.57
2022-10-21T04:55:10.022Z,6.13
2022-10-21T04:57:13.645Z,6.67
2022-10-21T04:59:17.060Z,7.00
2022-10-21T05:01:20.520Z,5.83
2022-10-21T05:03:24.098Z,5.67
2022-10-21T05:05:27.537Z,5.70
2022-10-21T05:07:30.928Z,5.43
2022-10-21T05:09:34.312Z,7.87
2022-10-21T05:11:37.712Z,5.57
2022-10-21T05:13:41.070Z,7.10
2022-10-21T05:15:44.475Z,5.40
2022-10-21T05:17:47.939Z,5.90
2022-10-21T05:22:08.504Z,5.30
2022-10-21T05:24:12.009Z,5.80
2022-10-21T05:26:15.423Z,6.03
2022-10-21T05:28:19.552Z,5.10
2022-10-21T05:30:23.045Z,6.17
2022-10-21T05:32:26.740Z,5.57
2022-10-21T05:34:30.396Z,4.87
2022-10-21T05:36:33.849Z,5.20
2022-10-21T05:38:37.233Z,4.23
2022-10-21T05:40:44.852Z,3.87
2022-10-21T05:42:48.496Z,3.97
2022-10-21T05:44:52.322Z,4.63
2022-10-21T05:49:13.446Z,5.67
2022-10-21T05:51:17.596Z,4.53
2022-10-21T05:53:23.733Z,4.53
2022-10-21T05:55:27.311Z,5.00
2022-10-21T05:57:33.844Z,4.10
2022-10-21T05:59:37.341Z,4.60
2022-10-21T06:01:41.139Z,3.97
2022-10-21T06:03:44.566Z,3.80
2022-10-21T06:05:47.987Z,4.33
2022-10-21T06:07:51.404Z,4.53
2022-10-21T06:12:11.603Z,3.80
2022-10-21T06:14:14.992Z,4.23
2022-10-21T06:16:18.383Z,3.97
2022-10-21T06:18:21.796Z,3.60
2022-10-21T06:20:25.160Z,4.73
2022-10-21T06:22:29.391Z,5.40
2022-10-21T06:24:33.059Z,3.90
2022-10-21T06:26:37.079Z,3.20
2022-10-21T06:28:42.579Z,4.27
2022-10-21T06:30:46.685Z,4.40
2022-10-21T06:32:50.340Z,4.00
2022-10-21T06:34:53.746Z,3.87
2022-10-21T06:39:17.359Z,4.33
2022-10-21T06:41:20.808Z,3.70
2022-10-21T06:43:26.782Z,3.47
2022-10-21T06:45:30.440Z,4.17
2022-10-21T06:47:33.851Z,3.80
2022-10-21T06:49:37.267Z,4.27
2022-10-21T06:51:40.647Z,4.53
2022-10-21T06:53:44.552Z,3.73
2022-10-21T06:55:47.963Z,4.17
2022-10-21T06:57:51.461Z,3.40
2022-10-21T07:02:11.736Z,3.40
2022-10-21T07:04:15.145Z,3.70
2022-10-21T07:06:19.079Z,3.53
2022-10-21T07:08:39.624Z,3.40
2022-10-21T07:10:27.799Z,3.57
2022-10-21T07:12:31.645Z,3.40
2022-10-21T07:14:35.632Z,3.57
2022-10-21T07:16:39.314Z,4.00
2022-10-21T07:18:43.864Z,3.00
2022-10-21T07:20:47.809Z,3.17
2022-10-21T07:23:00.246Z,3.30
2022-10-21T07:25:27.010Z,2.90
2022-10-21T07:27:32.381Z,2.63
2022-10-21T07:29:35.771Z,3.10
2022-10-21T07:31:39.394Z,3.10
2022-10-21T07:33:43.076Z,3.50
2022-10-21T07:35:46.544Z,3.77
2022-10-21T07:37:49.969Z,2.50
2022-10-21T07:39:53.983Z,3.17
2022-10-21T07:41:58.572Z,2.93
2022-10-21T07:44:02.558Z,2.53
2022-10-21T07:48:22.927Z,3.70
2022-10-21T07:50:26.385Z,2.93
2022-10-21T07:52:31.682Z,3.60
2022-10-21T07:54:35.732Z,3.00
2022-10-21T07:56:41.510Z,3.53
2022-10-21T07:58:46.396Z,2.70
2022-10-21T08:00:49.833Z,3.20
2022-10-21T08:05:12.328Z,3.30
2022-10-21T08:07:15.811Z,3.13
2022-10-21T08:09:19.350Z,2.60
2022-10-21T08:11:24.280Z,3.80
2022-10-21T08:13:27.709Z,3.10
2022-10-21T08:15:31.068Z,3.20
2022-10-21T08:19:50.066Z,3.10
2022-10-21T08:24:10.452Z,2.67
2022-10-21T08:26:15.908Z,4.60
2022-10-21T08:28:20.639Z,3.10
2022-10-21T08:30:25.237Z,2.57
2022-10-21T08:32:28.751Z,2.80
2022-10-21T08:34:32.115Z,3.10
2022-10-21T08:36:36.444Z,3.13
2022-10-21T08:38:39.977Z,3.00
2022-10-21T08:40:46.029Z,3.07
2022-10-21T08:42:49.655Z,3.27
2022-10-21T08:44:56.614Z,2.97
2022-10-21T08:47:05.424Z,3.27
2022-10-21T08:49:13.282Z,2.63
2022-10-21T08:51:21.864Z,2.80
2022-10-21T08:55:46.107Z,3.20
2022-10-21T08:57:50.448Z,3.67
2022-10-21T08:59:54.523Z,3.30
2022-10-21T09:02:01.622Z,3.67
2022-10-21T09:04:08.848Z,2.93
2022-10-21T09:06:21.349Z,3.40
2022-10-21T09:08:29.489Z,3.63
2022-10-21T09:10:39.809Z,3.50
2022-10-21T09:12:46.857Z,3.27
2022-10-21T09:15:13.153Z,3.10
2022-10-21T09:17:43.721Z,3.00
2022-10-21T09:19:51.529Z,3.70
2022-10-21T09:22:16.448Z,3.47
2022-10-21T09:24:11.065Z,2.93
2022-10-21T09:26:28.095Z,2.73
2022-10-21T09:28:32.519Z,3.00
2022-10-21T09:30:36.000Z,3.13
2022-10-21T09:32:41.605Z,2.67
2022-10-21T09:34:53.455Z,2.73
2022-10-21T09:36:59.033Z,3.63
2022-10-21T09:39:05.742Z,3.20
2022-10-21T09:41:14.390Z,3.57
2022-10-21T09:45:38.846Z,3.20
2022-10-21T09:50:09.817Z,4.67
2022-10-21T09:52:07.465Z,3.03
2022-10-21T09:54:14.175Z,2.93
2022-10-21T09:56:20.200Z,3.07
2022-10-21T09:58:27.244Z,3.17
2022-10-21T10:00:45.928Z,3.33
2022-10-21T10:02:49.802Z,3.30
2022-10-21T10:04:53.181Z,3.10
2022-10-21T10:06:57.492Z,3.57
2022-10-21T10:09:13.238Z,2.93
2022-10-21T10:11:20.744Z,2.80
2022-10-21T10:13:26.744Z,4.07
2022-10-21T10:15:36.587Z,3.67
2022-10-21T10:17:40.108Z,3.00
2022-10-21T10:19:43.495Z,2.77
2022-10-21T10:21:49.752Z,2.80
2022-10-21T10:23:57.627Z,3.60
2022-10-21T10:26:01.225Z,3.20
2022-10-21T10:28:07.636Z,3.40
2022-10-21T10:30:15.773Z,3.83
2022-10-21T10:32:20.138Z,3.33
2022-10-21T10:34:26.856Z,3.20
2022-10-21T10:36:33.462Z,3.57
2022-10-21T10:38:38.773Z,4.27
2022-10-21T10:40:43.961Z,3.67
2022-10-21T10:42:47.672Z,3.50
2022-10-21T10:44:54.567Z,3.57
2022-10-21T10:47:01.285Z,5.43
2022-10-21T10:49:09.104Z,3.50
2022-10-21T10:51:25.056Z,3.23
2022-10-21T10:53:33.643Z,3.23
2022-10-21T10:55:42.520Z,6.40
2022-10-21T10:58:06.274Z,3.43
2022-10-21T10:59:59.566Z,3.33
2022-10-21T11:02:30.942Z,3.10
2022-10-21T11:04:37.914Z,2.90
2022-10-21T11:06:45.296Z,3.20
2022-10-21T11:08:51.451Z,2.70
2022-10-21T11:10:58.412Z,3.20
2022-10-21T11:13:04.229Z,3.17
2022-10-21T11:15:13.946Z,4.97
2022-10-21T11:17:21.009Z,2.60
2022-10-21T11:19:29.576Z,3.50
2022-10-21T11:21:44.567Z,2.60
2022-10-21T11:24:29.727Z,3.40
2022-10-21T11:26:38.261Z,2.30
2022-10-21T11:31:09.964Z,3.10
2022-10-21T11:33:19.415Z,2.80
2022-10-21T11:35:33.223Z,3.40
2022-10-21T11:37:50.408Z,2.90
2022-10-21T11:39:57.929Z,2.57
2022-10-21T11:42:06.197Z,2.70
2022-10-21T11:44:18.643Z,2.60
2022-10-21T11:46:25.653Z,2.60
2022-10-21T11:48:57.516Z,3.07
2022-10-21T11:51:07.234Z,2.63
2022-10-21T11:53:27.315Z,2.00
2022-10-21T11:55:38.760Z,2.57
2022-10-21T11:57:48.170Z,2.50
2022-10-21T12:00:03.931Z,2.60
2022-10-21T12:02:15.038Z,2.20
2022-10-21T12:07:16.075Z,2.07
2022-10-21T12:09:23.088Z,2.20
2022-10-21T12:11:30.380Z,2.07
2022-10-21T12:13:37.562Z,4.13
2022-10-21T12:15:44.713Z,2.20
2022-10-21T12:17:59.873Z,2.27
2022-10-21T12:20:11.804Z,2.50
2022-10-21T12:22:15.632Z,2.50
2022-10-21T12:24:29.745Z,2.40
2022-10-21T12:28:44.775Z,1.93
2022-10-21T12:30:53.483Z,1.83
2022-10-21T12:33:06.590Z,2.10
2022-10-21T12:35:14.346Z,1.90
2022-10-21T12:40:12.511Z,2.03
2022-10-21T12:42:19.063Z,3.67
2022-10-21T12:44:25.236Z,1.90
2022-10-21T12:46:30.739Z,1.87
2022-10-21T12:48:38.918Z,1.83
2022-10-21T12:50:44.320Z,2.27
2022-10-21T12:52:49.907Z,2.03
2022-10-21T12:54:56.993Z,1.97
2022-10-21T12:57:04.321Z,2.00
2022-10-21T12:59:11.429Z,1.90
2022-10-21T13:03:55.719Z,2.00
2022-10-21T13:06:02.452Z,1.90
2022-10-21T13:08:26.974Z,2.10
2022-10-21T13:10:30.380Z,4.07
2022-10-21T13:12:34.026Z,1.63
2022-10-21T13:14:41.735Z,2.03
2022-10-21T13:16:45.196Z,1.70
2022-10-21T13:18:56.584Z,2.00
2022-10-21T13:21:00.121Z,1.63
2022-10-21T13:23:31.184Z,1.87
2022-10-21T13:25:35.886Z,2.10
2022-10-21T13:27:40.284Z,4.20
2022-10-21T13:29:48.508Z,2.00
2022-10-21T13:32:17.804Z,1.57
2022-10-21T13:34:31.528Z,2.17
2022-10-21T13:38:54.862Z,1.70
2022-10-21T13:43:17.979Z,1.83
2022-10-21T13:45:26.135Z,2.00
2022-10-21T13:47:31.535Z,2.57
2022-10-21T13:51:52.887Z,2.40
2022-10-21T13:53:57.927Z,2.20
2022-10-21T13:56:03.842Z,2.43
2022-10-21T13:58:15.556Z,2.03
2022-10-21T14:00:23.091Z,2.00
2022-10-21T14:02:27.057Z,1.97
2022-10-21T14:04:32.146Z,2.00
2022-10-21T14:08:55.377Z,1.90
2022-10-21T14:11:00.956Z,2.10
2022-10-21T14:13:04.989Z,2.43
2022-10-21T14:17:28.763Z,2.40
2022-10-21T14:19:34.767Z,2.47
2022-10-21T14:23:55.556Z,2.73
2022-10-21T14:28:22.828Z,2.20
2022-10-21T14:30:29.413Z,3.20
2022-10-21T14:32:33.668Z,2.70
2022-10-21T14:34:51.284Z,3.30
2022-10-21T14:39:28.342Z,3.93
2022-10-21T14:41:36.048Z,2.63
2022-10-21T14:43:40.966Z,2.83
2022-10-21T14:45:47.482Z,2.97
2022-10-21T14:47:53.336Z,3.00
2022-10-21T14:49:58.975Z,2.57
2022-10-21T14:52:04.815Z,2.77
2022-10-21T14:54:15.284Z,2.90
2022-10-21T14:56:22.149Z,2.60
2022-10-21T14:58:29.931Z,2.50
2022-10-21T15:00:38.659Z,3.30
2022-10-21T15:02:42.702Z,3.40
2022-10-21T15:04:51.951Z,3.33
2022-10-21T15:07:01.652Z,3.13
2022-10-21T15:09:20.091Z,3.20
2022-10-21T15:11:25.967Z,2.93
2022-10-21T15:13:29.333Z,2.97
2022-10-21T15:15:51.011Z,3.87
2022-10-21T15:18:02.792Z,2.77
2022-10-21T15:22:27.102Z,3.67
2022-10-21T15:24:36.291Z,3.13
2022-10-21T15:26:41.694Z,4.70
2022-10-21T15:28:45.408Z,3.30
2022-10-21T15:30:49.154Z,4.50
2022-10-21T15:32:54.436Z,3.60
2022-10-21T15:34:59.051Z,3.83
2022-10-21T15:37:02.525Z,4.87
2022-10-21T15:39:09.141Z,4.30
2022-10-21T15:41:12.844Z,4.90
2022-10-21T15:43:16.343Z,5.33
2022-10-21T15:45:22.397Z,4.67
2022-10-21T15:47:25.850Z,4.63
2022-10-21T15:51:47.115Z,3.80
2022-10-21T15:56:08.503Z,4.00
2022-10-21T15:58:11.937Z,4.27
2022-10-21T16:00:18.984Z,3.37
2022-10-21T16:02:22.513Z,4.40
2022-10-21T16:04:26.584Z,4.10
2022-10-21T16:06:30.584Z,4.23
2022-10-21T16:08:34.079Z,4.30
2022-10-21T16:10:40.241Z,4.30
2022-10-21T16:12:43.830Z,5.73
2022-10-21T16:14:47.225Z,5.50
2022-10-21T16:16:53.069Z,5.27
2022-10-21T16:18:56.444Z,4.67
2022-10-21T16:20:59.868Z,6.07
2022-10-21T16:23:03.494Z,6.43
2022-10-21T16:25:08.659Z,4.63
2022-10-21T16:27:13.635Z,5.80
2022-10-21T16:31:22.317Z,4.93
2022-10-21T16:33:25.704Z,4.60
2022-10-21T16:35:29.111Z,5.73
2022-10-21T16:37:32.495Z,4.10
2022-10-21T16:39:35.879Z,4.30
2022-10-21T16:41:39.706Z,4.60
2022-10-21T16:43:43.428Z,3.67
2022-10-21T16:45:46.876Z,5.13
2022-10-21T16:47:53.488Z,4.27
2022-10-21T16:52:16.116Z,4.60
2022-10-21T16:54:20.995Z,4.10
2022-10-21T16:58:39.807Z,4.63
2022-10-21T17:00:44.297Z,4.30
2022-10-21T17:05:05.599Z,4.67
2022-10-21T17:07:09.243Z,4.60
2022-10-21T17:09:12.679Z,4.30
2022-10-21T17:11:18.972Z,4.80
2022-10-21T17:13:22.517Z,4.27
2022-10-21T17:15:27.096Z,4.20
2022-10-21T17:17:30.664Z,4.77
2022-10-21T17:19:34.088Z,4.60
2022-10-21T17:21:37.551Z,4.07
2022-10-21T17:23:40.967Z,5.33
2022-10-21T17:25:44.360Z,3.43
2022-10-21T17:27:47.755Z,4.80
2022-10-21T17:29:51.178Z,4.27
2022-10-21T17:34:17.027Z,4.73
2022-10-21T17:36:20.676Z,4.07
2022-10-21T17:38:24.076Z,3.50
2022-10-21T17:40:27.717Z,3.90
2022-10-21T17:42:31.171Z,4.00
2022-10-21T17:44:34.693Z,3.90
2022-10-21T17:46:38.095Z,3.40
2022-10-21T17:48:41.464Z,4.73
2022-10-21T17:50:44.884Z,3.97
2022-10-21T17:52:48.317Z,4.07
2022-10-21T17:57:11.624Z,3.40
2022-10-21T17:59:15.071Z,3.60
2022-10-21T18:01:18.519Z,4.00
2022-10-21T18:03:22.110Z,3.93
2022-10-21T18:05:25.624Z,3.90
2022-10-21T18:07:29.758Z,4.13
2022-10-21T18:11:37.601Z,3.63
2022-10-21T18:13:42.289Z,3.43
2022-10-21T18:15:45.938Z,3.70
2022-10-21T18:17:49.820Z,3.67
2022-10-21T18:19:53.916Z,3.77
2022-10-21T18:21:58.180Z,3.57
2022-10-21T18:24:02.286Z,3.20
2022-10-21T18:26:07.829Z,3.40
2022-10-21T18:28:11.879Z,3.53
2022-10-21T18:30:15.572Z,3.20
2022-10-21T18:32:19.779Z,3.13
2022-10-21T18:34:23.469Z,3.67
2022-10-21T18:36:27.928Z,3.40
2022-10-21T18:38:31.955Z,3.67
2022-10-21T18:40:37.640Z,4.30
2022-10-21T18:42:41.753Z,4.17
2022-10-21T18:44:46.493Z,3.40
2022-10-21T18:46:52.502Z,3.20
2022-10-21T18:51:15.347Z,3.63
2022-10-21T18:53:20.088Z,3.60
2022-10-21T18:55:25.717Z,3.57
2022-10-21T18:57:30.647Z,3.30
2022-10-21T18:59:37.121Z,3.60
2022-10-21T19:01:43.867Z,3.43
2022-10-21T19:03:53.007Z,3.50
2022-10-21T19:05:58.650Z,3.50
2022-10-21T19:08:05.281Z,4.60
2022-10-21T19:10:12.999Z,3.80
2022-10-21T19:12:22.430Z,4.00
2022-10-21T19:14:25.595Z,3.47
2022-10-21T19:16:31.551Z,4.37
2022-10-21T19:18:37.902Z,3.67
2022-10-21T19:20:43.462Z,2.90
2022-10-21T19:22:50.524Z,3.20
2022-10-21T19:24:56.161Z,3.43
2022-10-21T19:27:01.739Z,4.70
2022-10-21T19:29:09.856Z,3.50
2022-10-21T19:31:15.829Z,2.87
2022-10-21T19:33:20.680Z,3.00
2022-10-21T19:35:26.018Z,3.00
2022-10-21T19:37:31.248Z,2.90
2022-10-21T19:39:36.512Z,3.80
2022-10-21T19:41:42.174Z,2.60
2022-10-21T19:43:48.615Z,3.10
2022-10-21T19:45:54.498Z,2.50
2022-10-21T19:48:00.306Z,2.70
2022-10-21T19:50:08.438Z,2.40
2022-10-21T19:54:32.086Z,2.73
2022-10-21T19:56:37.520Z,2.30
2022-10-21T19:58:43.708Z,2.60
2022-10-21T20:00:51.189Z,2.70
2022-10-21T20:02:56.832Z,2.70
2022-10-21T20:07:18.748Z,2.30
2022-10-21T20:09:25.664Z,2.63
2022-10-21T20:11:31.951Z,3.03
2022-10-21T20:13:37.325Z,4.53
2022-10-21T20:15:50.372Z,2.80
2022-10-21T20:17:55.500Z,2.37
2022-10-21T20:20:01.107Z,2.77
2022-10-21T20:24:23.375Z,2.60
2022-10-21T20:26:28.512Z,3.07
2022-10-21T20:28:32.263Z,2.87
2022-10-21T20:30:35.695Z,3.00
2022-10-21T20:32:39.087Z,2.90
2022-10-21T20:34:42.962Z,3.43
2022-10-21T20:36:46.529Z,2.73
2022-10-21T20:38:51.316Z,2.80
2022-10-21T20:40:56.908Z,2.20
2022-10-21T20:45:15.976Z,2.30
2022-10-21T20:47:19.427Z,2.63
2022-10-21T20:49:22.983Z,3.10
2022-10-21T20:51:28.777Z,3.27
2022-10-21T20:53:32.179Z,2.50
2022-10-21T20:55:36.442Z,2.97
2022-10-21T20:57:40.131Z,2.87
2022-10-21T20:59:43.777Z,2.90
2022-10-21T21:01:47.819Z,2.87
2022-10-21T21:03:52.728Z,2.50
2022-10-21T21:05:56.107Z,2.60
2022-10-21T21:07:59.789Z,2.80
2022-10-21T21:10:03.982Z,2.80
2022-10-21T21:12:08.012Z,2.40
2022-10-21T21:14:11.414Z,2.90
2022-10-21T21:16:16.673Z,3.17
2022-10-21T21:18:20.092Z,2.57
2022-10-21T21:20:23.654Z,2.63
2022-10-21T21:22:27.067Z,2.70
2022-10-21T21:24:30.566Z,2.40
2022-10-21T21:26:36.376Z,2.30
2022-10-21T21:28:40.439Z,2.80
2022-10-21T21:30:51.052Z,3.13
2022-10-21T21:32:54.568Z,2.53
2022-10-21T21:35:01.170Z,2.57
2022-10-21T21:37:03.355Z,8.57
2022-10-21T21:41:24.843Z,2.97
2022-10-21T21:43:28.951Z,2.60
2022-10-21T21:45:32.308Z,11.63
2022-10-21T21:47:36.624Z,3.40
2022-10-21T21:49:40.508Z,2.73
2022-10-21T21:51:44.050Z,2.83
2022-10-21T21:53:47.755Z,2.90
2022-10-21T21:58:07.783Z,3.30
2022-10-21T22:02:28.172Z,3.10
2022-10-21T22:04:31.709Z,2.87
2022-10-21T22:06:37.346Z,2.67
2022-10-21T22:08:42.080Z,2.70
2022-10-21T22:10:45.507Z,3.53
2022-10-21T22:12:48.900Z,3.47
2022-10-21T22:14:53.220Z,3.10
2022-10-21T22:16:56.596Z,3.47
2022-10-21T22:19:00.738Z,3.20
2022-10-21T22:21:07.889Z,3.00
2022-10-21T22:25:30.043Z,2.93
2022-10-21T22:27:33.641Z,3.47
2022-10-21T22:29:37.024Z,3.07
2022-10-21T22:31:40.445Z,3.07
2022-10-21T22:35:59.164Z,3.00
2022-10-21T22:38:02.597Z,2.80
2022-10-21T22:40:07.773Z,2.80
2022-10-21T22:44:28.191Z,2.83
2022-10-21T22:46:35.055Z,3.03
2022-10-21T22:48:37.072Z,3.13
2022-10-21T22:50:40.692Z,3.10
2022-10-21T22:52:44.487Z,2.63
2022-10-21T22:54:50.050Z,3.17
2022-10-21T22:56:54.430Z,2.90
2022-10-21T22:58:58.174Z,2.60
2022-10-21T23:01:06.981Z,3.27
2022-10-21T23:03:10.555Z,3.07
2022-10-21T23:07:30.066Z,3.13
2022-10-21T23:09:33.595Z,4.07
2022-10-21T23:11:37.921Z,2.90
2022-10-21T23:13:51.230Z,3.43
2022-10-21T23:15:47.927Z,3.30
2022-10-21T23:17:51.732Z,2.90
2022-10-21T23:19:56.071Z,3.27
2022-10-21T23:21:59.626Z,2.77
2022-10-21T23:24:03.922Z,3.40
2022-10-21T23:26:07.430Z,3.23
2022-10-21T23:28:10.861Z,3.13
2022-10-21T23:32:30.179Z,3.30
2022-10-21T23:34:33.884Z,3.40
2022-10-21T23:36:37.367Z,3.30
2022-10-21T23:38:40.757Z,3.07
2022-10-21T23:40:44.798Z,3.30
2022-10-21T23:45:10.529Z,3.10
2022-10-21T23:47:13.966Z,3.47
2022-10-21T23:51:32.872Z,3.83
2022-10-21T23:53:36.252Z,4.00
2022-10-21T23:55:39.687Z,4.27
2022-10-21T23:57:44.377Z,3.53
2022-10-21T23:59:48.182Z,3.50
